createdAt,value
2018-03-28T00:01:34.115Z,11.48
2018-03-28T00:04:00.776Z,10.90
2018-03-28T00:06:27.246Z,8.82
2018-03-28T00:08:53.878Z,8.80
2018-03-28T00:11:20.332Z,7.45
2018-03-28T00:13:47.528Z,6.85
2018-03-28T00:16:14.166Z,7.35
2018-03-28T00:18:40.663Z,8.60
2018-03-28T00:21:07.875Z,11.12
2018-03-28T00:23:34.404Z,9.52
2018-03-28T00:26:00.876Z,6.97
2018-03-28T00:28:28.131Z,9.52
2018-03-28T00:30:55.391Z,11.07
2018-03-28T00:33:22.716Z,11.27
2018-03-28T00:35:49.170Z,9.63
2018-03-28T00:38:16.387Z,12.18
2018-03-28T00:40:42.897Z,9.02
2018-03-28T00:43:09.347Z,9.52
2018-03-28T00:45:35.892Z,9.73
2018-03-28T00:48:02.369Z,9.25
2018-03-28T00:50:28.899Z,9.73
2018-03-28T00:52:56.202Z,10.45
2018-03-28T00:55:22.748Z,8.90
2018-03-28T00:57:49.242Z,10.50
2018-03-28T01:00:15.712Z,10.65
2018-03-28T01:02:42.207Z,9.45
2018-03-28T01:05:08.886Z,8.90
2018-03-28T01:07:35.384Z,9.93
2018-03-28T01:10:02.075Z,5.70
2018-03-28T01:12:28.531Z,5.85
2018-03-28T01:14:55.820Z,8.30
2018-03-28T01:17:22.354Z,7.60
2018-03-28T01:19:48.836Z,8.52
2018-03-28T01:22:15.309Z,6.60
2018-03-28T01:24:41.782Z,9.00
2018-03-28T01:27:08.393Z,7.30
2018-03-28T01:29:34.899Z,5.87
2018-03-28T01:32:02.151Z,8.10
2018-03-28T01:34:29.356Z,7.95
2018-03-28T01:36:55.968Z,7.50
2018-03-28T01:39:22.498Z,8.77
2018-03-28T01:41:49.027Z,8.60
2018-03-28T01:44:15.467Z,5.70
2018-03-28T01:46:41.976Z,7.45
2018-03-28T01:49:09.189Z,4.45
2018-03-28T01:51:35.651Z,8.05
2018-03-28T01:54:02.880Z,4.47
2018-03-28T01:56:29.435Z,8.48
2018-03-28T01:58:55.896Z,7.78
2018-03-28T02:01:22.368Z,8.50
2018-03-28T02:03:48.936Z,7.07
2018-03-28T02:06:16.175Z,4.12
2018-03-28T02:08:42.748Z,8.48
2018-03-28T02:11:09.224Z,6.70
2018-03-28T02:13:35.811Z,6.87
2018-03-28T02:16:03.252Z,7.18
2018-03-28T02:18:30.507Z,8.90
2018-03-28T02:20:57.760Z,6.57
2018-03-28T02:23:24.968Z,9.05
2018-03-28T02:25:51.452Z,8.95
2018-03-28T02:28:17.995Z,8.57
2018-03-28T02:30:44.444Z,8.20
2018-03-28T02:33:11.012Z,5.30
2018-03-28T02:35:37.452Z,9.50
2018-03-28T02:38:03.916Z,8.95
2018-03-28T02:40:31.250Z,8.13
2018-03-28T02:42:57.744Z,8.90
2018-03-28T02:45:24.281Z,9.85
2018-03-28T02:47:50.724Z,9.93
2018-03-28T02:50:17.286Z,7.68
2018-03-28T02:52:43.756Z,8.00
2018-03-28T02:55:10.983Z,5.35
2018-03-28T02:57:37.469Z,8.80
2018-03-28T03:00:03.942Z,6.53
2018-03-28T03:02:30.437Z,6.82
2018-03-28T03:04:56.892Z,6.43
2018-03-28T03:07:23.403Z,6.47
2018-03-28T03:09:49.871Z,6.72
2018-03-28T03:12:16.284Z,8.18
2018-03-28T03:14:42.751Z,10.02
2018-03-28T03:17:09.273Z,8.98
2018-03-28T03:19:35.738Z,7.75
2018-03-28T03:22:02.939Z,6.85
2018-03-28T03:24:29.532Z,8.50
2018-03-28T03:26:56.808Z,7.82
2018-03-28T03:29:23.258Z,9.48
2018-03-28T03:31:49.906Z,8.43
2018-03-28T03:34:16.379Z,6.85
2018-03-28T03:36:43.580Z,7.25
2018-03-28T03:39:10.057Z,9.27
2018-03-28T03:41:37.268Z,6.15
2018-03-28T03:44:03.717Z,8.35
2018-03-28T03:46:30.251Z,7.47
2018-03-28T03:48:56.719Z,4.97
2018-03-28T03:51:23.227Z,7.07
2018-03-28T03:53:49.732Z,6.82
2018-03-28T03:56:16.331Z,6.18
2018-03-28T03:58:43.616Z,6.87
2018-03-28T04:01:10.120Z,7.85
2018-03-28T04:03:37.454Z,3.90
2018-03-28T04:06:03.959Z,8.60
2018-03-28T04:08:30.551Z,6.20
2018-03-28T04:10:57.004Z,6.20
2018-03-28T04:13:23.549Z,5.53
2018-03-28T04:15:50.072Z,7.50
2018-03-28T04:18:16.596Z,5.97
2018-03-28T04:20:43.043Z,4.60
2018-03-28T04:23:09.499Z,6.93
2018-03-28T04:25:36.012Z,3.90
2018-03-28T04:28:02.517Z,7.50
2018-03-28T04:30:29.821Z,7.68
2018-03-28T04:32:56.320Z,5.35
2018-03-28T04:35:22.803Z,4.53
2018-03-28T04:37:49.317Z,7.70
2018-03-28T04:40:15.798Z,7.22
2018-03-28T04:42:44.007Z,5.60
2018-03-28T04:45:10.508Z,8.90
2018-03-28T04:47:37.709Z,8.85
2018-03-28T04:50:04.176Z,6.45
2018-03-28T04:52:30.782Z,5.80
2018-03-28T04:54:57.330Z,4.90
2018-03-28T04:57:23.799Z,5.97
2018-03-28T04:59:51.019Z,3.90
2018-03-28T05:02:17.548Z,4.20
2018-03-28T05:04:44.072Z,7.40
2018-03-28T05:07:10.588Z,5.90
2018-03-28T05:09:37.744Z,4.32
2018-03-28T05:12:04.312Z,4.40
2018-03-28T05:14:32.200Z,6.55
2018-03-28T05:16:58.694Z,4.28
2018-03-28T05:19:25.165Z,5.78
2018-03-28T05:21:53.926Z,2.53
2018-03-28T05:24:20.857Z,6.50
2018-03-28T05:26:47.332Z,6.18
2018-03-28T05:29:14.664Z,5.25
2018-03-28T05:31:41.131Z,5.60
2018-03-28T05:34:08.356Z,5.18
2018-03-28T05:36:34.960Z,3.80
2018-03-28T05:39:01.605Z,4.12
2018-03-28T05:41:28.360Z,6.50
2018-03-28T05:43:55.006Z,6.40
2018-03-28T05:46:21.498Z,6.30
2018-03-28T05:48:48.158Z,6.50
2018-03-28T05:51:14.691Z,7.50
2018-03-28T05:53:41.235Z,4.45
2018-03-28T05:56:07.764Z,6.60
2018-03-28T05:58:34.199Z,6.62
2018-03-28T06:01:00.662Z,4.97
2018-03-28T06:03:27.869Z,4.53
2018-03-28T06:05:54.407Z,6.37
2018-03-28T06:08:20.870Z,6.22
2018-03-28T06:10:47.432Z,8.23
2018-03-28T06:13:14.892Z,5.72
2018-03-28T06:15:42.214Z,7.15
2018-03-28T06:18:08.706Z,7.10
2018-03-28T06:20:35.224Z,6.72
2018-03-28T06:23:01.765Z,6.07
2018-03-28T06:25:28.986Z,5.43
2018-03-28T06:27:55.548Z,6.35
2018-03-28T06:30:22.359Z,6.13
2018-03-28T06:32:48.939Z,6.78
2018-03-28T06:35:15.585Z,6.80
2018-03-28T06:37:42.192Z,6.20
2018-03-28T06:40:09.423Z,6.27
2018-03-28T06:42:35.912Z,6.90
2018-03-28T06:45:02.712Z,6.73
2018-03-28T06:47:29.951Z,5.93
2018-03-28T06:49:56.468Z,5.77
2018-03-28T06:52:22.998Z,5.60
2018-03-28T06:54:49.503Z,6.62
2018-03-28T06:57:15.955Z,4.97
2018-03-28T06:59:42.496Z,6.03
2018-03-28T07:02:08.984Z,6.40
2018-03-28T07:04:35.516Z,5.23
2018-03-28T07:07:02.763Z,5.53
2018-03-28T07:09:30.060Z,5.07
2018-03-28T07:11:56.540Z,5.53
2018-03-28T07:14:23.157Z,4.10
2018-03-28T07:16:49.780Z,4.70
2018-03-28T07:19:16.263Z,4.93
2018-03-28T07:21:42.790Z,5.23
2018-03-28T07:24:10.164Z,4.83
2018-03-28T07:26:36.643Z,3.00
2018-03-28T07:29:03.393Z,8.40
2018-03-28T07:31:29.861Z,4.00
2018-03-28T07:33:57.089Z,3.23
2018-03-28T07:36:23.551Z,4.10
2018-03-28T07:38:50.832Z,2.60
2018-03-28T07:41:17.325Z,4.63
2018-03-28T07:43:44.542Z,4.50
2018-03-28T07:46:11.156Z,5.00
2018-03-28T07:48:37.617Z,3.77
2018-03-28T07:51:04.136Z,5.53
2018-03-28T07:53:30.615Z,4.73
2018-03-28T07:55:57.898Z,4.80
2018-03-28T07:58:24.367Z,5.20
2018-03-28T08:00:50.893Z,5.53
2018-03-28T08:03:17.415Z,4.40
2018-03-28T08:05:43.964Z,5.60
2018-03-28T08:08:10.643Z,6.10
2018-03-28T08:10:37.308Z,6.00
2018-03-28T08:13:03.800Z,4.80
2018-03-28T08:15:30.362Z,4.47
2018-03-28T08:17:57.682Z,3.90
2018-03-28T08:20:24.253Z,3.37
2018-03-28T08:22:51.558Z,4.20
2018-03-28T08:25:18.078Z,3.37
2018-03-28T08:27:44.580Z,3.77
2018-03-28T08:30:11.161Z,4.70
2018-03-28T08:32:37.672Z,2.93
2018-03-28T08:35:04.211Z,4.20
2018-03-28T08:37:30.711Z,5.67
2018-03-28T08:39:57.914Z,3.10
2018-03-28T08:42:24.624Z,8.30
2018-03-28T08:44:51.202Z,6.20
2018-03-28T08:47:18.040Z,5.67
2018-03-28T08:49:44.555Z,3.70
2018-03-28T08:52:11.106Z,2.93
2018-03-28T08:54:37.896Z,2.90
2018-03-28T08:57:05.250Z,6.13
2018-03-28T08:59:32.637Z,6.93
2018-03-28T09:01:59.180Z,3.60
2018-03-28T09:04:25.921Z,2.97
2018-03-28T09:06:52.404Z,2.63
2018-03-28T09:09:19.086Z,5.47
2018-03-28T09:11:45.600Z,4.93
2018-03-28T09:14:12.115Z,7.30
2018-03-28T09:16:39.360Z,3.50
2018-03-28T09:19:05.856Z,3.27
2018-03-28T09:21:32.396Z,3.47
2018-03-28T09:23:59.093Z,6.60
2018-03-28T09:26:26.479Z,6.00
2018-03-28T09:28:53.056Z,4.67
2018-03-28T09:31:20.410Z,6.70
2018-03-28T09:33:48.063Z,3.50
2018-03-28T09:36:15.581Z,4.17
2018-03-28T09:38:42.228Z,5.00
2018-03-28T09:41:08.870Z,3.00
2018-03-28T09:43:35.368Z,3.00
2018-03-28T09:46:02.008Z,3.53
2018-03-28T09:48:28.543Z,5.97
2018-03-28T09:50:55.763Z,3.00
2018-03-28T09:53:22.366Z,3.60
2018-03-28T09:55:48.853Z,5.93
2018-03-28T09:58:16.115Z,5.33
2018-03-28T10:00:45.321Z,3.63
2018-03-28T10:03:11.891Z,4.50
2018-03-28T10:05:38.520Z,2.27
2018-03-28T10:08:05.019Z,4.03
2018-03-28T10:10:32.258Z,4.33
2018-03-28T10:12:58.836Z,9.50
2018-03-28T10:15:25.433Z,3.47
2018-03-28T10:17:51.997Z,3.50
2018-03-28T10:20:18.523Z,2.83
2018-03-28T10:22:45.255Z,3.70
2018-03-28T10:25:15.482Z,2.30
2018-03-28T10:27:42.089Z,3.80
2018-03-28T10:30:08.683Z,5.30
2018-03-28T10:32:35.389Z,2.27
2018-03-28T10:35:02.244Z,2.10
2018-03-28T10:37:29.005Z,3.60
2018-03-28T10:39:55.493Z,3.40
2018-03-28T10:42:24.636Z,2.83
2018-03-28T10:44:51.164Z,2.43
2018-03-28T10:47:18.205Z,1.23
2018-03-28T10:49:45.024Z,1.90
2018-03-28T10:52:12.586Z,2.10
2018-03-28T10:54:39.983Z,1.50
2018-03-28T10:57:06.507Z,2.53
2018-03-28T10:59:33.085Z,1.83
2018-03-28T11:01:59.730Z,1.90
2018-03-28T11:04:27.075Z,1.70
2018-03-28T11:06:53.576Z,1.40
2018-03-28T11:09:28.050Z,1.60
2018-03-28T11:11:54.885Z,1.40
2018-03-28T11:14:21.637Z,1.20
2018-03-28T11:16:49.060Z,1.03
2018-03-28T11:19:15.736Z,1.47
2018-03-28T11:21:43.085Z,1.00
2018-03-28T11:24:10.356Z,0.97
2018-03-28T11:26:38.428Z,1.20
2018-03-28T11:29:07.519Z,1.90
2018-03-28T11:31:39.793Z,1.80
2018-03-28T11:34:07.573Z,1.40
2018-03-28T11:36:36.405Z,1.30
2018-03-28T11:39:02.897Z,1.63
2018-03-28T11:41:29.539Z,1.83
2018-03-28T11:43:56.846Z,1.33
2018-03-28T11:46:24.079Z,1.80
2018-03-28T11:48:50.576Z,1.17
2018-03-28T11:51:17.112Z,1.50
2018-03-28T11:53:43.567Z,2.10
2018-03-28T11:56:10.099Z,1.43
2018-03-28T11:58:36.682Z,1.53
2018-03-28T12:01:04.000Z,1.83
2018-03-28T12:03:30.560Z,1.37
2018-03-28T12:05:57.820Z,0.97
2018-03-28T12:08:24.450Z,1.50
2018-03-28T12:10:51.692Z,1.07
2018-03-28T12:13:18.232Z,1.33
2018-03-28T12:15:44.793Z,1.10
2018-03-28T12:18:11.518Z,1.77
2018-03-28T12:20:38.838Z,1.43
2018-03-28T12:23:05.463Z,1.20
2018-03-28T12:25:32.104Z,0.97
2018-03-28T12:27:58.942Z,0.90
2018-03-28T12:30:25.717Z,2.17
2018-03-28T12:32:52.152Z,1.20
2018-03-28T12:35:18.750Z,0.97
2018-03-28T12:37:45.462Z,1.43
2018-03-28T12:40:12.036Z,1.70
2018-03-28T12:42:38.582Z,1.20
2018-03-28T12:45:05.140Z,0.97
2018-03-28T12:47:34.086Z,1.50
2018-03-28T12:50:02.301Z,1.20
2018-03-28T13:04:36.064Z,1.93
2018-03-28T13:07:02.568Z,1.87
2018-03-28T13:09:29.068Z,2.00
2018-03-28T13:11:56.493Z,2.70
2018-03-28T13:14:23.029Z,1.30
2018-03-28T13:16:49.802Z,1.33
2018-03-28T13:19:17.139Z,1.87
2018-03-28T13:21:44.124Z,2.10
2018-03-28T13:24:10.763Z,1.80
2018-03-28T13:26:37.259Z,2.00
2018-03-28T13:29:03.842Z,2.93
2018-03-28T13:31:30.454Z,4.50
2018-03-28T13:33:57.808Z,3.13
2018-03-28T13:36:24.295Z,2.77
2018-03-28T13:38:50.978Z,2.33
2018-03-28T13:41:17.539Z,2.50
2018-03-28T13:43:44.150Z,2.43
2018-03-28T13:46:10.680Z,2.30
2018-03-28T13:48:38.030Z,2.70
2018-03-28T13:51:04.624Z,2.60
2018-03-28T13:53:31.097Z,2.10
2018-03-28T13:55:58.513Z,2.40
2018-03-28T13:58:25.048Z,2.03
2018-03-28T14:00:51.731Z,2.17
2018-03-28T14:03:19.172Z,2.07
2018-03-28T14:05:45.867Z,2.27
2018-03-28T14:08:13.156Z,3.70
2018-03-28T14:10:39.725Z,2.60
2018-03-28T14:13:07.118Z,4.07
2018-03-28T14:15:33.798Z,2.47
2018-03-28T14:18:00.262Z,2.07
2018-03-28T14:20:26.872Z,2.30
2018-03-28T14:22:53.331Z,2.27
2018-03-28T14:25:21.266Z,2.27
2018-03-28T14:27:48.152Z,2.50
2018-03-28T14:30:14.819Z,2.60
2018-03-28T14:32:42.304Z,1.90
2018-03-28T14:35:08.889Z,2.10
2018-03-28T14:37:35.367Z,2.10
2018-03-28T14:40:01.852Z,2.50
2018-03-28T14:42:28.515Z,2.50
2018-03-28T14:44:55.120Z,2.43
2018-03-28T14:47:21.635Z,2.53
2018-03-28T14:49:48.934Z,2.70
2018-03-28T14:52:15.526Z,2.77
2018-03-28T14:54:42.759Z,2.80
2018-03-28T14:57:10.946Z,2.70
2018-03-28T14:59:37.526Z,2.87
2018-03-28T15:02:04.021Z,3.40
2018-03-28T15:04:31.359Z,3.57
2018-03-28T15:06:57.895Z,3.40
2018-03-28T15:09:24.444Z,3.30
2018-03-28T15:11:51.821Z,3.77
2018-03-28T15:14:18.415Z,4.40
2018-03-28T15:16:45.063Z,4.33
2018-03-28T15:19:12.327Z,4.30
2018-03-28T15:21:39.656Z,4.03
2018-03-28T15:24:06.109Z,3.57
2018-03-28T15:26:33.379Z,3.40
2018-03-28T15:28:59.870Z,3.30
2018-03-28T15:31:27.248Z,2.53
2018-03-28T15:33:53.736Z,5.03
2018-03-28T15:36:20.183Z,2.40
2018-03-28T15:38:46.796Z,2.13
2018-03-28T15:41:13.285Z,3.10
2018-03-28T15:43:39.862Z,2.80
2018-03-28T15:46:06.443Z,2.00
2018-03-28T15:48:32.943Z,1.97
2018-03-28T15:50:59.605Z,2.17
2018-03-28T15:53:26.085Z,2.37
2018-03-28T15:55:52.563Z,2.70
2018-03-28T15:58:19.176Z,2.67
2018-03-28T16:00:45.713Z,2.53
2018-03-28T16:03:12.290Z,2.73
2018-03-28T16:05:38.909Z,3.27
2018-03-28T16:08:05.533Z,2.87
2018-03-28T16:10:33.069Z,3.10
2018-03-28T16:12:59.556Z,2.77
2018-03-28T16:15:26.107Z,3.20
2018-03-28T16:17:52.638Z,2.60
2018-03-28T16:20:19.321Z,3.13
2018-03-28T16:22:45.854Z,4.17
2018-03-28T16:25:14.918Z,3.10
2018-03-28T16:27:44.130Z,3.20
2018-03-28T16:30:15.281Z,3.20
2018-03-28T16:32:42.465Z,3.50
2018-03-28T16:35:09.855Z,2.90
2018-03-28T16:37:37.214Z,3.30
2018-03-28T16:40:03.768Z,2.40
2018-03-28T16:42:33.074Z,2.47
2018-03-28T16:44:59.650Z,2.30
2018-03-28T16:47:26.244Z,2.87
2018-03-28T16:49:52.769Z,2.50
2018-03-28T16:52:20.655Z,2.10
2018-03-28T16:54:47.433Z,2.00
2018-03-28T16:57:14.012Z,2.37
2018-03-28T16:59:40.623Z,1.57
2018-03-28T17:02:07.423Z,1.90
2018-03-28T17:04:33.958Z,1.60
2018-03-28T17:07:00.557Z,1.70
2018-03-28T17:09:27.196Z,1.30
2018-03-28T17:11:54.522Z,1.33
2018-03-28T17:14:21.056Z,1.30
2018-03-28T17:16:48.015Z,1.50
2018-03-28T17:19:15.065Z,1.37
2018-03-28T17:21:41.970Z,1.30
2018-03-28T17:24:09.369Z,1.03
2018-03-28T17:26:35.975Z,1.27
2018-03-28T17:29:02.608Z,1.37
2018-03-28T17:31:29.249Z,1.20
2018-03-28T17:33:55.724Z,1.57
2018-03-28T17:36:34.284Z,3.93
2018-03-28T17:41:35.515Z,5.13
2018-03-28T17:44:02.078Z,6.57
2018-03-28T17:46:28.696Z,3.43
2018-03-28T17:48:55.544Z,2.80
2018-03-28T17:51:22.264Z,3.33
2018-03-28T17:53:48.768Z,3.70
2018-03-28T17:56:15.855Z,2.57
2018-03-28T17:58:42.782Z,2.73
2018-03-28T18:01:10.473Z,2.00
2018-03-28T18:03:37.967Z,2.90
2018-03-28T18:06:05.491Z,1.67
2018-03-28T18:08:32.892Z,1.43
2018-03-28T18:10:59.461Z,1.40
2018-03-28T18:13:26.091Z,1.80
2018-03-28T18:15:53.139Z,1.43
2018-03-28T18:18:20.581Z,1.20
2018-03-28T18:20:48.056Z,1.57
2018-03-28T18:23:15.733Z,1.00
2018-03-28T18:25:42.580Z,1.27
2018-03-28T18:28:09.402Z,1.97
2018-03-28T18:30:36.748Z,1.80
2018-03-28T18:33:03.509Z,13.57
2018-03-28T18:35:30.071Z,11.17
2018-03-28T18:41:00.792Z,2.63
2018-03-28T18:43:28.011Z,3.20
2018-03-28T18:45:54.611Z,2.90
2018-03-28T18:48:21.399Z,4.27
2018-03-28T18:50:49.243Z,3.20
2018-03-28T18:53:16.024Z,14.47
2018-03-28T18:55:43.341Z,4.60
2018-03-28T18:58:10.019Z,9.27
2018-03-28T19:00:37.400Z,3.77
2018-03-28T19:03:04.082Z,5.00
2018-03-28T19:05:31.440Z,3.27
2018-03-28T19:07:58.008Z,4.00
2018-03-28T19:10:24.863Z,3.13
2018-03-28T19:12:52.578Z,1.60
2018-03-28T19:15:20.278Z,1.03
2018-03-28T19:17:48.026Z,3.00
2018-03-28T19:20:14.652Z,2.73
2018-03-28T19:22:42.519Z,1.87
2018-03-28T19:25:09.369Z,1.20
2018-03-28T19:27:36.677Z,2.80
2018-03-28T19:30:03.295Z,2.60
2018-03-28T19:32:30.312Z,2.03
2018-03-28T19:34:57.131Z,1.80
2018-03-28T19:37:23.757Z,1.20
2018-03-28T19:39:50.271Z,2.30
2018-03-28T19:42:16.827Z,1.53
2018-03-28T19:44:44.323Z,1.00
2018-03-28T19:47:12.680Z,1.67
2018-03-28T19:49:39.682Z,1.77
2018-03-28T19:52:06.399Z,1.40
2018-03-28T19:54:33.037Z,1.60
2018-03-28T19:56:59.744Z,1.50
2018-03-28T19:59:26.367Z,1.10
2018-03-28T20:01:53.053Z,1.90
2018-03-28T20:04:19.673Z,1.67
2018-03-28T20:06:47.024Z,0.73
2018-03-28T20:09:13.744Z,2.10
2018-03-28T20:11:40.382Z,1.37
2018-03-28T20:14:07.123Z,1.67
2018-03-28T20:16:33.675Z,1.63
2018-03-28T20:19:01.026Z,2.10
2018-03-28T20:21:27.629Z,2.73
2018-03-28T20:23:54.307Z,3.27
2018-03-28T20:26:21.085Z,3.40
2018-03-28T20:28:47.635Z,11.20
2018-03-28T20:31:14.275Z,34.20
2018-03-28T20:33:41.024Z,18.73
2018-03-28T20:36:08.386Z,8.87
2018-03-28T20:38:35.024Z,3.90
2018-03-28T20:41:02.144Z,3.00
2018-03-28T20:43:28.631Z,4.10
2018-03-28T20:45:55.174Z,3.50
2018-03-28T20:48:46.067Z,3.07
2018-03-28T20:51:12.605Z,2.07
2018-03-28T20:53:39.291Z,1.50
2018-03-28T20:56:05.847Z,1.83
2018-03-28T20:58:32.424Z,2.50
2018-03-28T21:00:59.714Z,1.30
2018-03-28T21:03:26.601Z,1.30
2018-03-28T21:05:53.172Z,0.80
2018-03-28T21:08:20.444Z,1.00
2018-03-28T21:10:46.965Z,0.70
2018-03-28T21:13:13.565Z,0.90
2018-03-28T21:15:40.871Z,0.70
2018-03-28T21:18:07.543Z,1.20
2018-03-28T21:20:34.017Z,1.60
2018-03-28T21:23:00.637Z,2.10
2018-03-28T21:25:27.940Z,1.07
2018-03-28T21:27:54.440Z,1.00
2018-03-28T21:30:21.724Z,1.67
2018-03-28T21:32:48.301Z,1.10
2018-03-28T21:35:14.914Z,1.87
2018-03-28T21:37:41.429Z,1.40
2018-03-28T21:40:08.074Z,1.90
2018-03-28T21:42:34.719Z,2.20
2018-03-28T21:45:08.722Z,2.00
2018-03-28T21:50:38.522Z,1.40
2018-03-28T21:59:01.075Z,2.67
2018-03-28T22:01:28.303Z,2.70
2018-03-28T22:03:54.814Z,3.23
2018-03-28T22:06:36.158Z,3.63
2018-03-28T22:11:43.045Z,3.10
2018-03-28T22:14:10.483Z,2.60
2018-03-28T22:16:37.784Z,3.03
2018-03-28T22:19:04.262Z,2.43
2018-03-28T22:21:30.697Z,2.23
2018-03-28T22:23:57.248Z,2.47
2018-03-28T22:26:23.672Z,3.43
2018-03-28T22:28:50.309Z,3.37
2018-03-28T22:31:16.785Z,2.80
2018-03-28T22:33:43.351Z,1.83
2018-03-28T22:36:09.854Z,3.47
2018-03-28T22:38:37.019Z,3.72
2018-03-28T22:41:03.446Z,4.28
2018-03-28T22:43:29.854Z,2.33
2018-03-28T22:45:56.378Z,4.40
2018-03-28T22:48:22.794Z,2.60
2018-03-28T22:50:49.504Z,1.92
2018-03-28T22:53:15.978Z,3.17
2018-03-28T22:55:43.167Z,4.80
2018-03-28T22:58:09.644Z,3.47
2018-03-28T23:00:36.122Z,4.57
2018-03-28T23:03:02.594Z,4.25
2018-03-28T23:05:29.080Z,5.37
2018-03-28T23:07:55.632Z,4.90
2018-03-28T23:10:22.104Z,5.50
2018-03-28T23:12:50.150Z,6.12
2018-03-28T23:15:16.625Z,5.20
2018-03-28T23:17:43.838Z,4.68
2018-03-28T23:20:10.334Z,5.60
2018-03-28T23:22:36.794Z,3.90
2018-03-28T23:25:04.002Z,2.85
2018-03-28T23:27:31.209Z,2.72
2018-03-28T23:29:59.483Z,3.53
2018-03-28T23:32:25.977Z,2.85
2018-03-28T23:34:52.385Z,3.62
2018-03-28T23:37:18.877Z,4.82
2018-03-28T23:39:45.352Z,2.85
2018-03-28T23:42:12.520Z,3.00
2018-03-28T23:44:39.014Z,2.35
2018-03-28T23:47:06.416Z,2.62
2018-03-28T23:49:32.914Z,1.83
2018-03-28T23:51:59.517Z,3.10
2018-03-28T23:54:25.938Z,2.50
2018-03-28T23:56:52.453Z,2.00
2018-03-28T23:59:18.952Z,1.65
